createdAt,value
2022-10-28T00:01:26.408Z,102078.56
2022-10-28T00:03:58.111Z,102072.69
2022-10-28T00:06:30.307Z,102068.91
2022-10-28T00:08:57.595Z,102077.81
2022-10-28T00:11:26.630Z,102064.66
2022-10-28T00:13:58.089Z,102077.50
2022-10-28T00:16:28.218Z,102073.97
2022-10-28T00:18:55.157Z,102074.78
2022-10-28T00:21:24.192Z,102079.44
2022-10-28T00:23:50.853Z,102070.09
2022-10-28T00:26:22.970Z,102072.16
2022-10-28T00:28:52.756Z,102067.47
2022-10-28T00:31:21.728Z,102075.19
2022-10-28T00:33:48.406Z,102072.91
2022-10-28T00:36:33.164Z,102070.19
2022-10-28T00:39:01.121Z,102067.78
2022-10-28T00:41:29.083Z,102062.44
2022-10-28T00:44:34.012Z,102063.66
2022-10-28T00:47:00.450Z,102058.19
2022-10-28T00:49:34.057Z,102056.34
2022-10-28T00:52:05.900Z,102059.81
2022-10-28T00:54:33.418Z,102049.41
2022-10-28T00:57:02.985Z,102048.19
2022-10-28T00:59:35.060Z,102056.34
2022-10-28T01:02:02.354Z,102050.91
2022-10-28T01:04:29.005Z,102048.06
2022-10-28T01:06:56.104Z,102059.81
2022-10-28T01:09:22.580Z,102055.91
2022-10-28T01:12:28.002Z,102063.00
2022-10-28T01:15:24.798Z,102062.22
2022-10-28T01:18:22.548Z,102065.38
2022-10-28T01:21:26.500Z,102059.94
2022-10-28T01:24:11.381Z,102060.38
2022-10-28T01:26:46.657Z,102069.75
2022-10-28T01:29:41.215Z,102075.59
2022-10-28T01:32:14.754Z,102074.06
2022-10-28T01:35:11.822Z,102058.50
2022-10-28T01:37:47.313Z,102056.53
2022-10-28T01:40:33.498Z,102072.88
2022-10-28T01:43:10.128Z,102069.84
2022-10-28T01:45:51.909Z,102063.19
2022-10-28T01:48:26.141Z,102057.75
2022-10-28T01:50:57.941Z,102054.72
2022-10-28T01:53:28.815Z,102067.88
2022-10-28T01:55:59.407Z,102065.59
2022-10-28T01:58:30.238Z,102062.88
2022-10-28T02:00:59.579Z,102066.75
2022-10-28T02:03:27.190Z,102059.38
2022-10-28T02:05:56.444Z,102057.81
2022-10-28T02:08:53.979Z,102054.34
2022-10-28T02:11:26.071Z,102055.88
2022-10-28T02:14:18.543Z,102052.38
2022-10-28T02:16:59.207Z,102054.34
2022-10-28T02:19:40.641Z,102070.69
2022-10-28T02:22:13.139Z,102069.19
2022-10-28T02:24:48.609Z,102059.06
2022-10-28T02:27:26.579Z,102052.38
2022-10-28T02:30:03.492Z,102055.56
2022-10-28T02:32:34.899Z,102051.72
2022-10-28T02:35:03.231Z,102048.16
2022-10-28T02:37:33.132Z,102038.88
2022-10-28T02:40:04.318Z,102041.28
2022-10-28T02:42:35.456Z,102044.78
2022-10-28T02:45:12.421Z,102036.63
2022-10-28T02:47:43.670Z,102023.00
2022-10-28T02:50:14.986Z,102023.75
2022-10-28T02:52:44.835Z,102031.50
2022-10-28T02:55:11.381Z,102024.97
2022-10-28T02:57:42.096Z,102027.59
2022-10-28T03:00:16.485Z,102025.72
2022-10-28T03:02:43.051Z,102021.47
2022-10-28T03:05:10.404Z,102012.13
2022-10-28T03:07:36.911Z,102008.63
2022-10-28T03:10:03.714Z,102009.81
2022-10-28T03:12:30.289Z,102000.13
2022-10-28T03:14:56.702Z,101996.66
2022-10-28T03:17:23.128Z,101991.22
2022-10-28T03:19:49.723Z,101991.63
2022-10-28T03:22:16.261Z,101986.97
2022-10-28T03:24:42.690Z,101982.28
2022-10-28T03:27:09.171Z,101978.03
2022-10-28T03:29:35.656Z,101982.28
2022-10-28T03:32:02.784Z,101975.75
2022-10-28T03:34:29.283Z,101974.88
2022-10-28T03:36:55.821Z,101972.59
2022-10-28T03:39:22.352Z,101980.41
2022-10-28T03:41:48.837Z,101980.41
2022-10-28T03:44:15.240Z,101982.38
2022-10-28T03:46:41.659Z,101978.91
2022-10-28T03:49:08.141Z,101993.25
2022-10-28T03:51:34.598Z,101987.38
2022-10-28T03:54:01.032Z,101985.09
2022-10-28T03:56:27.544Z,101977.38
2022-10-28T03:58:53.968Z,101971.94
2022-10-28T04:01:20.772Z,101974.22
2022-10-28T04:03:47.260Z,101969.63
2022-10-28T04:06:14.428Z,101975.09
2022-10-28T04:08:40.854Z,101977.38
2022-10-28T04:11:07.332Z,101977.03
2022-10-28T04:13:33.963Z,101969.63
2022-10-28T04:16:02.183Z,101970.84
2022-10-28T04:18:28.724Z,101978.25
2022-10-28T04:20:55.157Z,101970.09
2022-10-28T04:23:21.675Z,101972.81
2022-10-28T04:25:52.141Z,101971.25
2022-10-28T04:28:18.745Z,101975.53
2022-10-28T04:30:47.634Z,101968.53
2022-10-28T04:33:14.088Z,101972.81
2022-10-28T04:35:42.853Z,101971.25
2022-10-28T04:38:10.618Z,101962.75
2022-10-28T04:40:37.773Z,101962.75
2022-10-28T04:43:07.386Z,101960.81
2022-10-28T04:45:36.323Z,101951.88
2022-10-28T04:48:02.800Z,101953.09
2022-10-28T04:50:29.278Z,101938.28
2022-10-28T04:52:56.184Z,101927.84
2022-10-28T04:55:23.017Z,101933.69
2022-10-28T04:57:56.960Z,101923.25
2022-10-28T05:00:24.929Z,101928.63
2022-10-28T05:02:51.501Z,101929.81
2022-10-28T05:05:18.651Z,101934.47
2022-10-28T05:07:46.012Z,101932.16
2022-10-28T05:10:15.446Z,101936.13
2022-10-28T05:12:43.120Z,101946.53
2022-10-28T05:15:10.934Z,101945.47
2022-10-28T05:17:42.986Z,101957.88
2022-10-28T05:20:11.713Z,101959.38
2022-10-28T05:22:38.282Z,101965.59
2022-10-28T05:25:05.352Z,101968.31
2022-10-28T05:27:31.798Z,101967.53
2022-10-28T05:29:58.221Z,101955.06
2022-10-28T05:32:24.745Z,101946.13
2022-10-28T05:34:51.150Z,101946.00
2022-10-28T05:37:17.603Z,101938.59
2022-10-28T05:39:44.113Z,101934.72
2022-10-28T05:42:10.522Z,101944.38
2022-10-28T05:44:37.002Z,101936.22
2022-10-28T05:47:03.527Z,101935.47
2022-10-28T05:49:29.925Z,101935.47
2022-10-28T05:51:56.413Z,101920.66
2022-10-28T05:54:23.076Z,101917.94
2022-10-28T05:56:49.513Z,101917.16
2022-10-28T05:59:15.949Z,101909.00
2022-10-28T06:01:42.425Z,101914.34
2022-10-28T06:04:09.108Z,101913.91
2022-10-28T06:06:35.587Z,101905.00
2022-10-28T06:09:02.026Z,101905.75
2022-10-28T06:11:27.047Z,101907.47
2022-10-28T06:13:53.532Z,101909.13
2022-10-28T06:16:19.967Z,101908.81
2022-10-28T06:18:46.401Z,101907.59
2022-10-28T06:21:13.090Z,101912.16
2022-10-28T06:23:39.560Z,101924.91
2022-10-28T06:26:06.048Z,101922.50
2022-10-28T06:28:32.573Z,101923.25
2022-10-28T06:31:03.459Z,101931.88
2022-10-28T06:33:31.645Z,101933.28
2022-10-28T06:35:59.218Z,101930.13
2022-10-28T06:38:27.389Z,101932.75
2022-10-28T06:40:56.939Z,101936.56
2022-10-28T06:43:23.737Z,101935.38
2022-10-28T06:45:54.901Z,101944.63
2022-10-28T06:48:23.727Z,101931.78
2022-10-28T06:50:56.221Z,101927.84
2022-10-28T06:53:22.837Z,101932.28
2022-10-28T06:55:57.210Z,101933.41
2022-10-28T06:58:25.033Z,101929.03
2022-10-28T07:00:52.359Z,101928.47
2022-10-28T07:03:18.993Z,101928.03
2022-10-28T07:05:46.941Z,101931.00
2022-10-28T07:08:14.451Z,101931.63
2022-10-28T07:10:42.112Z,101929.56
2022-10-28T07:13:08.621Z,101926.69
2022-10-28T07:15:35.033Z,101925.38
2022-10-28T07:18:02.586Z,101930.72
2022-10-28T07:20:31.923Z,101941.94
2022-10-28T07:22:59.936Z,101940.19
2022-10-28T07:25:28.052Z,101942.03
2022-10-28T07:27:56.586Z,101943.44
2022-10-28T07:30:23.365Z,101947.53
2022-10-28T07:32:49.902Z,101939.72
2022-10-28T07:35:16.371Z,101939.13
2022-10-28T07:37:42.885Z,101939.44
2022-10-28T07:40:09.700Z,101944.47
2022-10-28T07:42:36.152Z,101932.69
2022-10-28T07:45:02.845Z,101939.50
2022-10-28T07:47:29.250Z,101938.66
2022-10-28T07:49:55.973Z,101948.22
2022-10-28T07:52:22.726Z,101940.22
2022-10-28T07:54:50.588Z,101938.59
2022-10-28T07:57:17.007Z,101937.25
2022-10-28T07:59:43.464Z,101943.78
2022-10-28T08:02:17.046Z,101931.66
2022-10-28T08:04:43.515Z,101933.97
2022-10-28T08:07:10.051Z,101929.56
2022-10-28T08:09:36.472Z,101935.22
2022-10-28T08:12:03.031Z,101931.94
2022-10-28T08:14:29.450Z,101932.53
2022-10-28T08:16:55.842Z,101934.84
2022-10-28T08:19:22.275Z,101936.22
2022-10-28T08:21:48.736Z,101932.56
2022-10-28T08:24:15.270Z,101925.66
2022-10-28T08:26:41.804Z,101931.75
2022-10-28T08:29:10.387Z,101931.16
2022-10-28T08:31:36.827Z,101930.28
2022-10-28T08:34:03.407Z,101926.97
2022-10-28T08:36:29.876Z,101925.16
2022-10-28T08:38:56.789Z,101921.25
2022-10-28T08:41:44.216Z,101918.25
2022-10-28T08:44:22.907Z,101918.56
2022-10-28T08:47:07.785Z,101912.34
2022-10-28T08:49:39.043Z,101913.28
2022-10-28T08:52:29.525Z,101919.38
2022-10-28T08:55:00.156Z,101909.22
2022-10-28T08:57:50.951Z,101915.44
2022-10-28T09:00:36.898Z,101914.69
2022-10-28T09:03:12.096Z,101918.03
2022-10-28T09:05:44.756Z,101918.03
2022-10-28T09:08:22.557Z,101919.53
2022-10-28T09:11:10.722Z,101917.91
2022-10-28T09:14:13.474Z,101912.88
2022-10-28T09:17:14.838Z,101919.09
2022-10-28T09:20:12.104Z,101913.78
2022-10-28T09:22:58.102Z,101918.78
2022-10-28T09:25:35.605Z,101909.53
2022-10-28T09:28:14.076Z,101911.66
2022-10-28T09:30:46.132Z,101904.22
2022-10-28T09:33:28.988Z,101903.75
2022-10-28T09:35:56.386Z,101909.69
2022-10-28T09:38:32.849Z,101902.69
2022-10-28T09:41:06.014Z,101897.69
2022-10-28T09:43:35.279Z,101886.28
2022-10-28T09:46:13.678Z,101885.84
2022-10-28T09:48:52.563Z,101889.63
2022-10-28T09:51:37.753Z,101884.19
2022-10-28T09:54:04.282Z,101883.38
2022-10-28T09:56:30.976Z,101882.19
2022-10-28T09:59:01.022Z,101877.50
2022-10-28T10:01:32.492Z,101870.97
2022-10-28T10:03:59.343Z,101888.13
2022-10-28T10:06:29.497Z,101884.31
2022-10-28T10:08:56.791Z,101886.28
2022-10-28T10:11:32.986Z,101879.75
2022-10-28T10:14:06.686Z,101883.69
2022-10-28T10:16:33.088Z,101875.19
2022-10-28T10:19:02.917Z,101876.00
2022-10-28T10:21:43.296Z,101865.34
2022-10-28T10:24:34.085Z,101869.59
2022-10-28T10:27:03.757Z,101870.66
2022-10-28T10:29:31.226Z,101865.97
2022-10-28T10:32:07.692Z,101868.22
2022-10-28T10:34:34.439Z,101869.31
2022-10-28T10:37:01.103Z,101864.56
2022-10-28T10:39:37.106Z,101860.78
2022-10-28T10:42:15.739Z,101860.66
2022-10-28T10:44:43.354Z,101856.53
2022-10-28T10:47:17.747Z,101857.88
2022-10-28T10:49:44.221Z,101863.81
2022-10-28T10:52:23.648Z,101860.59
2022-10-28T10:55:22.953Z,101859.84
2022-10-28T10:57:49.546Z,101858.75
2022-10-28T11:00:19.074Z,101858.88
2022-10-28T11:02:50.030Z,101867.25
2022-10-28T11:05:25.729Z,101863.13
2022-10-28T11:07:58.599Z,101867.50
2022-10-28T11:10:30.905Z,101861.13
2022-10-28T11:13:02.324Z,101851.69
2022-10-28T11:15:30.521Z,101852.56
2022-10-28T11:18:17.190Z,101840.88
2022-10-28T11:21:04.009Z,101841.16
2022-10-28T11:23:36.439Z,101842.69
2022-10-28T11:26:07.368Z,101829.44
2022-10-28T11:28:55.464Z,101837.38
2022-10-28T11:31:44.773Z,101836.63
2022-10-28T11:34:24.599Z,101835.56
2022-10-28T11:37:12.559Z,101831.03
2022-10-28T11:39:55.008Z,101821.75
2022-10-28T11:42:27.527Z,101818.25
2022-10-28T11:45:08.051Z,101819.16
2022-10-28T11:48:22.059Z,101814.66
2022-10-28T11:51:18.110Z,101821.31
2022-10-28T11:53:47.585Z,101823.50
2022-10-28T11:56:25.507Z,101823.16
2022-10-28T11:58:58.013Z,101830.75
2022-10-28T12:01:42.966Z,101817.75
2022-10-28T12:04:39.846Z,101828.25
2022-10-28T12:07:06.247Z,101822.00
2022-10-28T12:09:38.696Z,101820.97
2022-10-28T12:12:17.486Z,101811.38
2022-10-28T12:14:57.539Z,101801.97
2022-10-28T12:17:29.818Z,101804.44
2022-10-28T12:19:56.234Z,101806.06
2022-10-28T12:22:57.283Z,101796.09
2022-10-28T12:25:30.796Z,101795.78
2022-10-28T12:28:04.803Z,101796.25
2022-10-28T12:30:34.521Z,101793.50
2022-10-28T12:33:19.106Z,101797.47
2022-10-28T12:35:54.481Z,101799.44
2022-10-28T12:38:59.950Z,101800.53
2022-10-28T12:41:31.283Z,101803.72
2022-10-28T12:44:04.546Z,101804.13
2022-10-28T12:46:57.949Z,101802.34
2022-10-28T12:49:42.895Z,101801.13
2022-10-28T12:52:31.287Z,101795.38
2022-10-28T12:55:26.850Z,101801.28
2022-10-28T12:58:01.169Z,101799.00
2022-10-28T13:00:36.386Z,101792.03
2022-10-28T13:03:07.639Z,101797.16
2022-10-28T13:06:06.657Z,101790.22
2022-10-28T13:08:45.012Z,101785.47
2022-10-28T13:11:20.501Z,101784.75
2022-10-28T13:13:47.073Z,101787.47
2022-10-28T13:16:32.211Z,101786.38
2022-10-28T13:19:23.522Z,101788.69
2022-10-28T13:22:21.156Z,101786.72
2022-10-28T13:24:56.410Z,101787.94
2022-10-28T13:27:23.274Z,101799.63
2022-10-28T13:29:53.859Z,101791.09
2022-10-28T13:32:38.581Z,101784.28
2022-10-28T13:35:22.367Z,101785.50
2022-10-28T13:37:51.231Z,101779.63
2022-10-28T13:40:40.856Z,101786.25
2022-10-28T13:43:21.171Z,101776.56
2022-10-28T13:45:49.152Z,101777.03
2022-10-28T13:48:45.888Z,101778.66
2022-10-28T13:51:12.226Z,101776.41
2022-10-28T13:53:47.820Z,101775.34
2022-10-28T13:56:31.631Z,101771.09
2022-10-28T13:59:02.661Z,101772.31
2022-10-28T14:01:56.534Z,101766.25
2022-10-28T14:04:39.492Z,101762.75
2022-10-28T14:07:08.882Z,101767.47
2022-10-28T14:09:36.876Z,101763.22
2022-10-28T14:12:26.865Z,101756.69
2022-10-28T14:14:58.404Z,101762.63
2022-10-28T14:17:30.025Z,101758.81
2022-10-28T14:19:57.272Z,101745.63
2022-10-28T14:22:37.245Z,101754.72
2022-10-28T14:25:43.591Z,101757.13
2022-10-28T14:28:31.542Z,101754.88
2022-10-28T14:31:14.405Z,101749.09
2022-10-28T14:33:46.499Z,101757.75
2022-10-28T14:36:19.294Z,101753.22
2022-10-28T14:39:04.277Z,101756.41
2022-10-28T14:42:08.250Z,101758.81
2022-10-28T14:44:43.725Z,101752.75
2022-10-28T14:47:22.164Z,101753.19
2022-10-28T14:49:59.451Z,101742.00
2022-10-28T14:52:28.425Z,101736.19
2022-10-28T14:54:58.564Z,101733.19
2022-10-28T14:57:33.611Z,101739.06
2022-10-28T15:00:07.642Z,101743.03
2022-10-28T15:02:37.399Z,101744.69
2022-10-28T15:05:28.881Z,101738.16
2022-10-28T15:07:58.134Z,101740.16
2022-10-28T15:10:38.225Z,101741.03
2022-10-28T15:13:07.321Z,101736.38
2022-10-28T15:15:37.252Z,101741.22
2022-10-28T15:18:21.252Z,101733.44
2022-10-28T15:20:47.675Z,101736.16
2022-10-28T15:23:23.380Z,101739.84
2022-10-28T15:26:15.980Z,101740.28
2022-10-28T15:28:43.196Z,101734.06
2022-10-28T15:31:09.700Z,101733.75
2022-10-28T15:33:41.764Z,101721.78
2022-10-28T15:36:23.545Z,101720.72
2022-10-28T15:38:51.685Z,101717.25
2022-10-28T15:41:30.388Z,101725.84
2022-10-28T15:44:01.058Z,101718.59
2022-10-28T15:46:29.115Z,101721.78
2022-10-28T15:49:00.238Z,101723.72
2022-10-28T15:51:27.154Z,101728.44
2022-10-28T15:54:19.118Z,101729.78
2022-10-28T15:56:57.297Z,101726.28
2022-10-28T15:59:25.867Z,101730.53
2022-10-28T16:01:55.934Z,101726.00
2022-10-28T16:04:22.807Z,101730.38
2022-10-28T16:07:07.035Z,101732.81
2022-10-28T16:09:52.030Z,101731.25
2022-10-28T16:12:22.484Z,101728.13
2022-10-28T16:14:56.494Z,101729.00
2022-10-28T16:17:26.877Z,101732.50
2022-10-28T16:19:55.427Z,101725.97
2022-10-28T16:22:24.218Z,101721.41
2022-10-28T16:24:52.647Z,101724.44
2022-10-28T16:27:24.642Z,101724.13
2022-10-28T16:29:51.621Z,101724.13
2022-10-28T16:32:25.157Z,101728.84
2022-10-28T16:34:51.646Z,101732.03
2022-10-28T16:37:23.195Z,101730.47
2022-10-28T16:39:49.733Z,101733.97
2022-10-28T16:42:16.965Z,101725.94
2022-10-28T16:44:43.711Z,101721.25
2022-10-28T16:47:15.014Z,101724.41
2022-10-28T16:49:42.115Z,101729.84
2022-10-28T16:52:17.868Z,101738.81
2022-10-28T16:54:44.284Z,101735.75
2022-10-28T16:57:10.751Z,101741.97
2022-10-28T16:59:37.487Z,101736.25
2022-10-28T17:02:06.712Z,101731.22
2022-10-28T17:04:33.308Z,101731.22
2022-10-28T17:06:59.894Z,101744.06
2022-10-28T17:09:26.322Z,101741.81
2022-10-28T17:11:52.724Z,101745.31
2022-10-28T17:14:19.276Z,101746.50
2022-10-28T17:16:45.769Z,101736.81
2022-10-28T17:19:12.317Z,101745.75
2022-10-28T17:21:38.813Z,101741.94
2022-10-28T17:24:05.772Z,101744.69
2022-10-28T17:26:32.204Z,101754.81
2022-10-28T17:28:58.679Z,101753.31
2022-10-28T17:31:25.691Z,101749.81
2022-10-28T17:33:55.783Z,101752.53
2022-10-28T17:36:23.183Z,101759.22
2022-10-28T17:38:49.885Z,101767.06
2022-10-28T17:41:16.440Z,101763.91
2022-10-28T17:43:42.976Z,101774.97
2022-10-28T17:46:09.781Z,101778.72
2022-10-28T17:48:36.295Z,101770.28
2022-10-28T17:51:02.835Z,101769.91
2022-10-28T17:53:29.350Z,101780.06
2022-10-28T17:56:00.874Z,101777.34
2022-10-28T17:58:28.143Z,101765.66
2022-10-28T18:00:58.179Z,101771.59
2022-10-28T18:03:25.009Z,101768.88
2022-10-28T18:05:51.994Z,101768.13
2022-10-28T18:08:20.278Z,101773.22
2022-10-28T18:10:54.953Z,101772.03
2022-10-28T18:13:36.360Z,101773.97
2022-10-28T18:16:13.234Z,101770.22
2022-10-28T18:18:42.480Z,101772.94
2022-10-28T18:21:10.636Z,101772.16
2022-10-28T18:23:37.160Z,101776.09
2022-10-28T18:26:23.869Z,101769.91
2022-10-28T18:28:50.367Z,101772.66
2022-10-28T18:31:19.837Z,101766.84
2022-10-28T18:33:46.909Z,101773.50
2022-10-28T18:36:16.610Z,101776.22
2022-10-28T18:38:43.249Z,101774.25
2022-10-28T18:41:14.830Z,101780.47
2022-10-28T18:43:41.557Z,101775.47
2022-10-28T18:46:08.639Z,101786.06
2022-10-28T18:48:35.307Z,101781.38
2022-10-28T18:51:06.688Z,101786.06
2022-10-28T18:53:42.511Z,101785.75
2022-10-28T18:56:16.930Z,101794.66
2022-10-28T18:58:43.686Z,101791.94
2022-10-28T19:01:15.096Z,101794.66
2022-10-28T19:03:42.682Z,101795.16
2022-10-28T19:06:12.132Z,101793.59
2022-10-28T19:08:39.328Z,101799.03
2022-10-28T19:11:07.049Z,101803.72
2022-10-28T19:13:35.505Z,101809.66
2022-10-28T19:16:02.380Z,101809.19
2022-10-28T19:18:28.881Z,101815.09
2022-10-28T19:21:04.059Z,101824.00
2022-10-28T19:23:34.127Z,101822.53
2022-10-28T19:26:00.788Z,101817.50
2022-10-28T19:28:27.758Z,101819.44
2022-10-28T19:31:01.935Z,101817.19
2022-10-28T19:33:30.019Z,101832.31
2022-10-28T19:36:18.565Z,101827.34
2022-10-28T19:38:46.747Z,101823.09
2022-10-28T19:41:15.486Z,101817.19
2022-10-28T19:43:43.513Z,101823.84
2022-10-28T19:46:15.638Z,101824.28
2022-10-28T19:48:47.320Z,101826.25
2022-10-28T19:51:16.438Z,101822.75
2022-10-28T19:53:49.601Z,101834.44
2022-10-28T19:56:19.156Z,101836.06
2022-10-28T19:58:47.286Z,101844.25
2022-10-28T20:01:14.327Z,101851.22
2022-10-28T20:03:45.082Z,101852.41
2022-10-28T20:06:15.487Z,101855.13
2022-10-28T20:08:44.435Z,101865.75
2022-10-28T20:11:13.941Z,101859.50
2022-10-28T20:13:40.547Z,101869.66
2022-10-28T20:16:10.642Z,101869.22
2022-10-28T20:18:38.001Z,101877.81
2022-10-28T20:21:06.757Z,101879.78
2022-10-28T20:23:35.573Z,101870.84
2022-10-28T20:26:05.528Z,101881.00
2022-10-28T20:28:32.183Z,101889.16
2022-10-28T20:30:59.815Z,101890.69
2022-10-28T20:33:26.889Z,101906.28
2022-10-28T20:35:54.617Z,101906.28
2022-10-28T20:38:21.429Z,101904.00
2022-10-28T20:40:57.211Z,101914.16
2022-10-28T20:43:25.616Z,101913.38
2022-10-28T20:45:56.718Z,101911.44
2022-10-28T20:48:23.249Z,101914.56
2022-10-28T20:50:52.468Z,101903.66
2022-10-28T20:53:21.713Z,101897.03
2022-10-28T20:55:49.072Z,101906.38
2022-10-28T20:58:15.516Z,101914.56
2022-10-28T21:00:42.253Z,101917.28
2022-10-28T21:03:09.270Z,101922.44
2022-10-28T21:05:35.799Z,101938.31
2022-10-28T21:08:02.816Z,101942.28
2022-10-28T21:10:29.205Z,101942.28
2022-10-28T21:12:55.775Z,101927.88
2022-10-28T21:15:22.218Z,101948.91
2022-10-28T21:17:48.640Z,101961.78
2022-10-28T21:20:15.161Z,101955.13
2022-10-28T21:22:41.558Z,101948.91
2022-10-28T21:25:08.434Z,101959.81
2022-10-28T21:27:35.090Z,101956.34
2022-10-28T21:30:01.599Z,101945.44
2022-10-28T21:32:28.015Z,101943.88
2022-10-28T21:34:54.427Z,101949.34
2022-10-28T21:37:21.271Z,101962.66
2022-10-28T21:39:51.250Z,101970.84
2022-10-28T21:42:18.302Z,101978.25
2022-10-28T21:44:44.672Z,101985.22
2022-10-28T21:47:11.150Z,101984.44
2022-10-28T21:49:37.645Z,101978.25
2022-10-28T21:52:04.209Z,101975.16
2022-10-28T21:54:32.289Z,101980.59
2022-10-28T21:56:58.658Z,101982.16
2022-10-28T21:59:25.080Z,101983.34
2022-10-28T22:01:51.612Z,101982.59
2022-10-28T22:04:18.126Z,101993.94
2022-10-28T22:06:44.666Z,101988.78
2022-10-28T22:09:11.118Z,101998.19
2022-10-28T22:11:37.735Z,101987.72
2022-10-28T22:14:05.180Z,101988.47
2022-10-28T22:16:33.936Z,101996.22
2022-10-28T22:19:03.062Z,102005.59
2022-10-28T22:21:32.026Z,101998.19
2022-10-28T22:23:58.534Z,101999.69
2022-10-28T22:26:29.911Z,102014.19
2022-10-28T22:28:56.436Z,102019.66
2022-10-28T22:31:26.701Z,102011.16
2022-10-28T22:33:53.231Z,102011.94
2022-10-28T22:36:22.541Z,102011.16
2022-10-28T22:38:49.227Z,102005.25
2022-10-28T22:41:19.575Z,102008.75
2022-10-28T22:43:49.624Z,102005.25
2022-10-28T22:46:17.032Z,102012.69
2022-10-28T22:48:44.034Z,102010.38
2022-10-28T22:51:10.921Z,102001.44
2022-10-28T22:53:38.976Z,102013.09
2022-10-28T22:56:07.218Z,102009.63
2022-10-28T22:58:33.674Z,102007.66
2022-10-28T23:01:17.586Z,102002.66
2022-10-28T23:03:46.175Z,102005.38
2022-10-28T23:06:14.633Z,102006.59
2022-10-28T23:08:42.443Z,102020.97
2022-10-28T23:11:09.750Z,102025.97
2022-10-28T23:16:05.007Z,102029.59
2022-10-28T23:18:31.701Z,102026.88
2022-10-28T23:21:13.755Z,102032.31
2022-10-28T23:23:41.395Z,102032.31
2022-10-28T23:26:10.555Z,102028.78
2022-10-28T23:28:37.113Z,102011.69
2022-10-28T23:31:05.262Z,102003.22
2022-10-28T23:33:33.455Z,102008.22
2022-10-28T23:36:02.261Z,102003.22
2022-10-28T23:38:28.684Z,102009.41
2022-10-28T23:41:05.576Z,102016.06
2022-10-28T23:43:33.052Z,102010.63
2022-10-28T23:46:00.123Z,102011.41
2022-10-28T23:48:28.280Z,102008.31
2022-10-28T23:50:55.597Z,102020.75
2022-10-28T23:53:22.478Z,102032.41
2022-10-28T23:55:50.353Z,102024.66
2022-10-28T23:58:18.218Z,102024.66
